sensor_id;sensor_type;location;lat;lon;timestamp;temperature;humidity
19007;DHT22;9636;47.382;8.480;2022-09-30T00:01:24;10.50;99.90
19007;DHT22;9636;47.382;8.480;2022-09-30T00:03:52;10.40;99.90
19007;DHT22;9636;47.382;8.480;2022-09-30T00:06:20;10.40;99.90
19007;DHT22;9636;47.382;8.480;2022-09-30T00:08:47;10.40;99.90
19007;DHT22;9636;47.382;8.480;2022-09-30T00:11:15;10.40;99.90
19007;DHT22;9636;47.382;8.480;2022-09-30T00:13:44;10.50;99.90
19007;DHT22;9636;47.382;8.480;2022-09-30T00:16:13;10.50;99.90
19007;DHT22;9636;47.382;8.480;2022-09-30T00:18:41;10.50;99.90
19007;DHT22;9636;47.382;8.480;2022-09-30T00:21:09;10.50;99.90
19007;DHT22;9636;47.382;8.480;2022-09-30T00:23:38;10.50;99.90
19007;DHT22;9636;47.382;8.480;2022-09-30T00:26:06;10.50;99.90
19007;DHT22;9636;47.382;8.480;2022-09-30T00:28:34;10.50;99.90
19007;DHT22;9636;47.382;8.480;2022-09-30T00:31:03;10.50;99.90
19007;DHT22;9636;47.382;8.480;2022-09-30T00:33:30;10.60;99.90
19007;DHT22;9636;47.382;8.480;2022-09-30T00:35:56;10.60;99.90
19007;DHT22;9636;47.382;8.480;2022-09-30T00:38:23;10.60;99.90
19007;DHT22;9636;47.382;8.480;2022-09-30T00:40:52;10.60;99.90
19007;DHT22;9636;47.382;8.480;2022-09-30T00:43:38;10.60;99.90
19007;DHT22;9636;47.382;8.480;2022-09-30T00:46:14;10.60;99.90
19007;DHT22;9636;47.382;8.480;2022-09-30T00:48:42;10.60;99.90
19007;DHT22;9636;47.382;8.480;2022-09-30T00:51:09;10.60;99.90
19007;DHT22;9636;47.382;8.480;2022-09-30T00:53:41;10.50;99.90
19007;DHT22;9636;47.382;8.480;2022-09-30T00:56:16;10.60;99.90
19007;DHT22;9636;47.382;8.480;2022-09-30T00:58:47;10.60;99.90
19007;DHT22;9636;47.382;8.480;2022-09-30T01:01:16;10.60;99.90
19007;DHT22;9636;47.382;8.480;2022-09-30T01:03:47;10.60;99.90
19007;DHT22;9636;47.382;8.480;2022-09-30T01:06:17;10.60;99.90
19007;DHT22;9636;47.382;8.480;2022-09-30T01:08:44;10.60;99.90
19007;DHT22;9636;47.382;8.480;2022-09-30T01:11:14;10.50;99.90
19007;DHT22;9636;47.382;8.480;2022-09-30T01:13:41;10.60;99.90
19007;DHT22;9636;47.382;8.480;2022-09-30T01:16:18;10.60;99.90
19007;DHT22;9636;47.382;8.480;2022-09-30T01:18:57;10.60;99.90
19007;DHT22;9636;47.382;8.480;2022-09-30T01:21:45;10.60;99.90
19007;DHT22;9636;47.382;8.480;2022-09-30T01:24:35;10.60;99.90
19007;DHT22;9636;47.382;8.480;2022-09-30T01:27:23;10.60;99.90
19007;DHT22;9636;47.382;8.480;2022-09-30T01:30:06;10.60;99.90
19007;DHT22;9636;47.382;8.480;2022-09-30T01:32:49;10.60;99.90
19007;DHT22;9636;47.382;8.480;2022-09-30T01:35:24;10.50;99.90
19007;DHT22;9636;47.382;8.480;2022-09-30T01:38:00;10.60;99.90
19007;DHT22;9636;47.382;8.480;2022-09-30T01:40:36;10.50;99.90
19007;DHT22;9636;47.382;8.480;2022-09-30T01:43:09;10.60;99.90
19007;DHT22;9636;47.382;8.480;2022-09-30T01:45:41;10.60;99.90
19007;DHT22;9636;47.382;8.480;2022-09-30T01:48:17;10.60;99.90
19007;DHT22;9636;47.382;8.480;2022-09-30T01:50:51;10.60;99.90
19007;DHT22;9636;47.382;8.480;2022-09-30T01:53:24;10.50;99.90
19007;DHT22;9636;47.382;8.480;2022-09-30T01:55:59;10.60;99.90
19007;DHT22;9636;47.382;8.480;2022-09-30T01:58:34;10.60;99.90
19007;DHT22;9636;47.382;8.480;2022-09-30T02:01:07;10.60;99.90
19007;DHT22;9636;47.382;8.480;2022-09-30T02:03:43;10.60;99.90
19007;DHT22;9636;47.382;8.480;2022-09-30T02:06:14;10.60;99.90
19007;DHT22;9636;47.382;8.480;2022-09-30T02:08:46;10.50;99.90
19007;DHT22;9636;47.382;8.480;2022-09-30T02:11:16;10.50;99.90
19007;DHT22;9636;47.382;8.480;2022-09-30T02:13:47;10.50;99.90
19007;DHT22;9636;47.382;8.480;2022-09-30T02:16:19;10.50;99.90
19007;DHT22;9636;47.382;8.480;2022-09-30T02:18:52;10.50;99.90
19007;DHT22;9636;47.382;8.480;2022-09-30T02:21:22;10.50;99.90
19007;DHT22;9636;47.382;8.480;2022-09-30T02:23:52;10.50;99.90
19007;DHT22;9636;47.382;8.480;2022-09-30T02:26:23;10.50;99.90
19007;DHT22;9636;47.382;8.480;2022-09-30T02:28:54;10.50;99.90
19007;DHT22;9636;47.382;8.480;2022-09-30T02:31:25;10.50;99.90
19007;DHT22;9636;47.382;8.480;2022-09-30T02:33:56;10.50;99.90
19007;DHT22;9636;47.382;8.480;2022-09-30T02:36:29;10.40;99.90
19007;DHT22;9636;47.382;8.480;2022-09-30T02:39:02;10.50;99.90
19007;DHT22;9636;47.382;8.480;2022-09-30T02:41:36;10.50;99.90
19007;DHT22;9636;47.382;8.480;2022-09-30T02:44:04;10.50;99.90
19007;DHT22;9636;47.382;8.480;2022-09-30T02:46:40;10.50;99.90
19007;DHT22;9636;47.382;8.480;2022-09-30T02:49:18;10.40;99.90
19007;DHT22;9636;47.382;8.480;2022-09-30T02:51:55;10.50;99.90
19007;DHT22;9636;47.382;8.480;2022-09-30T02:54:31;10.50;99.90
19007;DHT22;9636;47.382;8.480;2022-09-30T02:57:07;10.50;99.90
19007;DHT22;9636;47.382;8.480;2022-09-30T02:59:39;10.50;99.90
19007;DHT22;9636;47.382;8.480;2022-09-30T03:02:06;10.50;99.90
19007;DHT22;9636;47.382;8.480;2022-09-30T03:04:36;10.50;99.90
19007;DHT22;9636;47.382;8.480;2022-09-30T03:07:04;10.50;99.90
19007;DHT22;9636;47.382;8.480;2022-09-30T03:09:34;10.50;99.90
19007;DHT22;9636;47.382;8.480;2022-09-30T03:12:11;10.50;99.90
19007;DHT22;9636;47.382;8.480;2022-09-30T03:15:13;10.50;99.90
19007;DHT22;9636;47.382;8.480;2022-09-30T03:17:57;10.50;99.90
19007;DHT22;9636;47.382;8.480;2022-09-30T03:20:36;10.50;99.90
19007;DHT22;9636;47.382;8.480;2022-09-30T03:23:28;10.50;99.90
19007;DHT22;9636;47.382;8.480;2022-09-30T03:26:09;10.50;99.90
19007;DHT22;9636;47.382;8.480;2022-09-30T03:28:47;10.40;99.90
19007;DHT22;9636;47.382;8.480;2022-09-30T03:31:23;10.40;99.90
19007;DHT22;9636;47.382;8.480;2022-09-30T03:33:54;10.40;99.90
19007;DHT22;9636;47.382;8.480;2022-09-30T03:36:29;10.40;99.90
19007;DHT22;9636;47.382;8.480;2022-09-30T03:39:04;10.40;99.90
19007;DHT22;9636;47.382;8.480;2022-09-30T03:41:38;10.30;99.90
19007;DHT22;9636;47.382;8.480;2022-09-30T03:44:11;10.40;99.90
19007;DHT22;9636;47.382;8.480;2022-09-30T03:46:43;10.40;99.90
19007;DHT22;9636;47.382;8.480;2022-09-30T03:49:13;10.30;99.90
19007;DHT22;9636;47.382;8.480;2022-09-30T03:51:42;10.40;99.90
19007;DHT22;9636;47.382;8.480;2022-09-30T03:54:11;10.40;99.90
19007;DHT22;9636;47.382;8.480;2022-09-30T03:56:38;10.40;99.90
19007;DHT22;9636;47.382;8.480;2022-09-30T03:59:09;10.40;99.90
19007;DHT22;9636;47.382;8.480;2022-09-30T04:01:36;10.30;99.90
19007;DHT22;9636;47.382;8.480;2022-09-30T04:04:04;10.40;99.90
19007;DHT22;9636;47.382;8.480;2022-09-30T04:06:31;10.40;99.90
19007;DHT22;9636;47.382;8.480;2022-09-30T04:08:59;10.30;99.90
19007;DHT22;9636;47.382;8.480;2022-09-30T04:11:26;10.40;99.90
19007;DHT22;9636;47.382;8.480;2022-09-30T04:13:52;10.40;99.90
19007;DHT22;9636;47.382;8.480;2022-09-30T04:16:19;10.40;99.90
19007;DHT22;9636;47.382;8.480;2022-09-30T04:18:46;10.30;99.90
19007;DHT22;9636;47.382;8.480;2022-09-30T04:21:13;10.40;99.90
19007;DHT22;9636;47.382;8.480;2022-09-30T04:23:41;10.30;99.90
19007;DHT22;9636;47.382;8.480;2022-09-30T04:26:12;10.40;99.90
19007;DHT22;9636;47.382;8.480;2022-09-30T04:28:40;10.40;99.90
19007;DHT22;9636;47.382;8.480;2022-09-30T04:31:09;10.40;99.90
19007;DHT22;9636;47.382;8.480;2022-09-30T04:33:36;10.40;99.90
19007;DHT22;9636;47.382;8.480;2022-09-30T04:36:04;10.40;99.90
19007;DHT22;9636;47.382;8.480;2022-09-30T04:38:31;10.30;99.90
19007;DHT22;9636;47.382;8.480;2022-09-30T04:41:01;10.30;99.90
19007;DHT22;9636;47.382;8.480;2022-09-30T04:43:30;10.30;99.90
19007;DHT22;9636;47.382;8.480;2022-09-30T04:45:57;10.40;99.90
19007;DHT22;9636;47.382;8.480;2022-09-30T04:48:24;10.40;99.90
19007;DHT22;9636;47.382;8.480;2022-09-30T04:50:52;10.40;99.90
19007;DHT22;9636;47.382;8.480;2022-09-30T04:53:19;10.30;99.90
19007;DHT22;9636;47.382;8.480;2022-09-30T04:55:46;10.30;99.90
19007;DHT22;9636;47.382;8.480;2022-09-30T04:58:13;10.40;99.90
19007;DHT22;9636;47.382;8.480;2022-09-30T05:00:42;10.40;99.90
19007;DHT22;9636;47.382;8.480;2022-09-30T05:03:09;10.30;99.90
19007;DHT22;9636;47.382;8.480;2022-09-30T05:05:36;10.30;99.90
19007;DHT22;9636;47.382;8.480;2022-09-30T05:08:04;10.30;99.90
19007;DHT22;9636;47.382;8.480;2022-09-30T05:10:31;10.30;99.90
19007;DHT22;9636;47.382;8.480;2022-09-30T05:12:58;10.30;99.90
19007;DHT22;9636;47.382;8.480;2022-09-30T05:15:25;10.30;99.90
19007;DHT22;9636;47.382;8.480;2022-09-30T05:17:53;10.40;99.90
19007;DHT22;9636;47.382;8.480;2022-09-30T05:20:20;10.40;99.90
19007;DHT22;9636;47.382;8.480;2022-09-30T05:22:47;10.30;99.90
19007;DHT22;9636;47.382;8.480;2022-09-30T05:25:18;10.30;99.90
19007;DHT22;9636;47.382;8.480;2022-09-30T05:27:47;10.30;99.90
19007;DHT22;9636;47.382;8.480;2022-09-30T05:30:14;10.30;99.90
19007;DHT22;9636;47.382;8.480;2022-09-30T05:32:41;10.30;99.90
19007;DHT22;9636;47.382;8.480;2022-09-30T05:35:09;10.30;99.90
19007;DHT22;9636;47.382;8.480;2022-09-30T05:37:36;10.30;99.90
19007;DHT22;9636;47.382;8.480;2022-09-30T05:40:04;10.40;99.90
19007;DHT22;9636;47.382;8.480;2022-09-30T05:42:31;10.40;99.90
19007;DHT22;9636;47.382;8.480;2022-09-30T05:45:01;10.30;99.90
19007;DHT22;9636;47.382;8.480;2022-09-30T05:47:28;10.40;99.90
19007;DHT22;9636;47.382;8.480;2022-09-30T05:49:55;10.40;99.90
19007;DHT22;9636;47.382;8.480;2022-09-30T05:52:23;10.30;99.90
19007;DHT22;9636;47.382;8.480;2022-09-30T05:54:50;10.30;99.90
19007;DHT22;9636;47.382;8.480;2022-09-30T05:57:16;10.40;99.90
19007;DHT22;9636;47.382;8.480;2022-09-30T05:59:43;10.40;99.90
19007;DHT22;9636;47.382;8.480;2022-09-30T06:02:10;10.40;99.90
19007;DHT22;9636;47.382;8.480;2022-09-30T06:04:37;10.40;99.90
19007;DHT22;9636;47.382;8.480;2022-09-30T06:07:03;10.40;99.90
19007;DHT22;9636;47.382;8.480;2022-09-30T06:09:32;10.40;99.90
19007;DHT22;9636;47.382;8.480;2022-09-30T06:11:59;10.50;99.90
19007;DHT22;9636;47.382;8.480;2022-09-30T06:14:26;10.40;99.90
19007;DHT22;9636;47.382;8.480;2022-09-30T06:16:53;10.40;99.90
19007;DHT22;9636;47.382;8.480;2022-09-30T06:19:20;10.50;99.90
19007;DHT22;9636;47.382;8.480;2022-09-30T06:21:47;10.40;99.90
19007;DHT22;9636;47.382;8.480;2022-09-30T06:24:14;10.40;99.90
19007;DHT22;9636;47.382;8.480;2022-09-30T06:26:42;10.50;99.90
19007;DHT22;9636;47.382;8.480;2022-09-30T06:29:09;10.50;99.90
19007;DHT22;9636;47.382;8.480;2022-09-30T06:31:36;10.50;99.90
19007;DHT22;9636;47.382;8.480;2022-09-30T06:34:03;10.50;99.90
19007;DHT22;9636;47.382;8.480;2022-09-30T06:36:31;10.50;99.90
19007;DHT22;9636;47.382;8.480;2022-09-30T06:38:59;10.50;99.90
19007;DHT22;9636;47.382;8.480;2022-09-30T06:41:26;10.50;99.90
19007;DHT22;9636;47.382;8.480;2022-09-30T06:43:55;10.50;99.90
19007;DHT22;9636;47.382;8.480;2022-09-30T06:46:22;10.50;99.90
19007;DHT22;9636;47.382;8.480;2022-09-30T06:48:52;10.50;99.90
19007;DHT22;9636;47.382;8.480;2022-09-30T06:51:19;10.50;99.90
19007;DHT22;9636;47.382;8.480;2022-09-30T06:53:49;10.60;99.90
19007;DHT22;9636;47.382;8.480;2022-09-30T06:56:16;10.60;99.90
19007;DHT22;9636;47.382;8.480;2022-09-30T06:58:44;10.70;99.90
19007;DHT22;9636;47.382;8.480;2022-09-30T07:01:13;10.70;99.90
19007;DHT22;9636;47.382;8.480;2022-09-30T07:03:41;10.70;99.90
19007;DHT22;9636;47.382;8.480;2022-09-30T07:06:09;10.70;99.90
19007;DHT22;9636;47.382;8.480;2022-09-30T07:08:36;10.70;99.90
19007;DHT22;9636;47.382;8.480;2022-09-30T07:11:05;10.70;99.90
19007;DHT22;9636;47.382;8.480;2022-09-30T07:13:36;10.70;99.90
19007;DHT22;9636;47.382;8.480;2022-09-30T07:16:04;10.80;99.90
19007;DHT22;9636;47.382;8.480;2022-09-30T07:18:32;10.80;99.90
19007;DHT22;9636;47.382;8.480;2022-09-30T07:20:59;10.80;99.90
19007;DHT22;9636;47.382;8.480;2022-09-30T07:23:25;10.80;99.90
19007;DHT22;9636;47.382;8.480;2022-09-30T07:25:54;10.80;99.90
19007;DHT22;9636;47.382;8.480;2022-09-30T07:28:21;10.90;99.90
19007;DHT22;9636;47.382;8.480;2022-09-30T07:30:52;10.90;99.90
19007;DHT22;9636;47.382;8.480;2022-09-30T07:33:20;11.00;99.90
19007;DHT22;9636;47.382;8.480;2022-09-30T07:35:53;11.00;99.90
19007;DHT22;9636;47.382;8.480;2022-09-30T07:38:21;11.10;99.90
19007;DHT22;9636;47.382;8.480;2022-09-30T07:40:53;11.10;99.90
19007;DHT22;9636;47.382;8.480;2022-09-30T07:43:20;11.00;99.90
19007;DHT22;9636;47.382;8.480;2022-09-30T07:45:48;11.00;99.90
19007;DHT22;9636;47.382;8.480;2022-09-30T07:48:16;11.10;99.90
19007;DHT22;9636;47.382;8.480;2022-09-30T07:51:04;11.10;99.90
19007;DHT22;9636;47.382;8.480;2022-09-30T07:53:31;11.10;99.90
19007;DHT22;9636;47.382;8.480;2022-09-30T07:56:01;11.20;99.90
19007;DHT22;9636;47.382;8.480;2022-09-30T07:58:28;11.30;99.90
19007;DHT22;9636;47.382;8.480;2022-09-30T08:00:55;11.30;99.90
19007;DHT22;9636;47.382;8.480;2022-09-30T08:03:21;11.30;99.90
19007;DHT22;9636;47.382;8.480;2022-09-30T08:05:48;11.30;99.90
19007;DHT22;9636;47.382;8.480;2022-09-30T08:08:17;11.40;99.90
19007;DHT22;9636;47.382;8.480;2022-09-30T08:10:44;11.40;99.90
19007;DHT22;9636;47.382;8.480;2022-09-30T08:13:10;11.50;99.90
19007;DHT22;9636;47.382;8.480;2022-09-30T08:15:38;11.50;99.90
19007;DHT22;9636;47.382;8.480;2022-09-30T08:18:05;11.50;99.90
19007;DHT22;9636;47.382;8.480;2022-09-30T08:20:32;11.50;99.90
19007;DHT22;9636;47.382;8.480;2022-09-30T08:22:59;11.60;99.90
19007;DHT22;9636;47.382;8.480;2022-09-30T08:25:27;11.60;99.90
19007;DHT22;9636;47.382;8.480;2022-09-30T08:27:54;11.50;99.90
19007;DHT22;9636;47.382;8.480;2022-09-30T08:30:21;11.60;99.90
19007;DHT22;9636;47.382;8.480;2022-09-30T08:32:47;11.70;99.90
19007;DHT22;9636;47.382;8.480;2022-09-30T08:35:14;11.80;99.90
19007;DHT22;9636;47.382;8.480;2022-09-30T08:37:41;11.80;99.90
19007;DHT22;9636;47.382;8.480;2022-09-30T08:40:17;11.80;99.90
19007;DHT22;9636;47.382;8.480;2022-09-30T08:42:59;11.80;99.90
19007;DHT22;9636;47.382;8.480;2022-09-30T08:45:35;11.90;99.90
19007;DHT22;9636;47.382;8.480;2022-09-30T08:48:18;12.00;99.90
19007;DHT22;9636;47.382;8.480;2022-09-30T08:50:55;12.00;99.90
19007;DHT22;9636;47.382;8.480;2022-09-30T08:53:27;12.00;99.90
19007;DHT22;9636;47.382;8.480;2022-09-30T08:55:56;11.90;99.90
19007;DHT22;9636;47.382;8.480;2022-09-30T08:58:30;11.90;99.90
19007;DHT22;9636;47.382;8.480;2022-09-30T09:01:01;11.90;99.90
19007;DHT22;9636;47.382;8.480;2022-09-30T09:03:30;11.80;99.90
19007;DHT22;9636;47.382;8.480;2022-09-30T09:06:08;11.90;99.90
19007;DHT22;9636;47.382;8.480;2022-09-30T09:08:50;11.90;99.90
19007;DHT22;9636;47.382;8.480;2022-09-30T09:11:27;11.80;99.90
19007;DHT22;9636;47.382;8.480;2022-09-30T09:14:02;11.80;99.90
19007;DHT22;9636;47.382;8.480;2022-09-30T09:16:35;11.80;99.90
19007;DHT22;9636;47.382;8.480;2022-09-30T09:19:08;11.80;99.90
19007;DHT22;9636;47.382;8.480;2022-09-30T09:21:45;11.90;99.90
19007;DHT22;9636;47.382;8.480;2022-09-30T09:24:19;11.90;99.90
19007;DHT22;9636;47.382;8.480;2022-09-30T09:26:49;12.00;99.90
19007;DHT22;9636;47.382;8.480;2022-09-30T09:29:29;12.00;99.90
19007;DHT22;9636;47.382;8.480;2022-09-30T09:31:58;12.00;99.90
19007;DHT22;9636;47.382;8.480;2022-09-30T09:34:28;12.00;99.90
19007;DHT22;9636;47.382;8.480;2022-09-30T09:37:03;12.10;99.90
19007;DHT22;9636;47.382;8.480;2022-09-30T09:39:52;12.20;99.90
19007;DHT22;9636;47.382;8.480;2022-09-30T09:42:31;12.30;99.90
19007;DHT22;9636;47.382;8.480;2022-09-30T09:45:04;12.30;99.90
19007;DHT22;9636;47.382;8.480;2022-09-30T09:47:36;12.30;99.90
19007;DHT22;9636;47.382;8.480;2022-09-30T09:50:10;12.30;99.90
19007;DHT22;9636;47.382;8.480;2022-09-30T09:52:49;12.20;99.90
19007;DHT22;9636;47.382;8.480;2022-09-30T09:55:21;12.30;99.90
19007;DHT22;9636;47.382;8.480;2022-09-30T09:58:04;12.20;99.90
19007;DHT22;9636;47.382;8.480;2022-09-30T10:00:33;12.20;99.90
19007;DHT22;9636;47.382;8.480;2022-09-30T10:03:19;12.40;99.90
19007;DHT22;9636;47.382;8.480;2022-09-30T10:05:59;12.50;99.90
19007;DHT22;9636;47.382;8.480;2022-09-30T10:08:28;12.50;99.90
19007;DHT22;9636;47.382;8.480;2022-09-30T10:10:59;12.50;99.90
19007;DHT22;9636;47.382;8.480;2022-09-30T10:13:29;12.50;99.90
19007;DHT22;9636;47.382;8.480;2022-09-30T10:15:59;12.60;99.90
19007;DHT22;9636;47.382;8.480;2022-09-30T10:18:28;12.60;99.90
19007;DHT22;9636;47.382;8.480;2022-09-30T10:20:58;12.50;99.90
19007;DHT22;9636;47.382;8.480;2022-09-30T10:23:29;12.50;99.90
19007;DHT22;9636;47.382;8.480;2022-09-30T10:25:59;12.50;99.90
19007;DHT22;9636;47.382;8.480;2022-09-30T10:28:27;12.50;99.90
19007;DHT22;9636;47.382;8.480;2022-09-30T10:30:59;12.50;99.90
19007;DHT22;9636;47.382;8.480;2022-09-30T10:33:30;12.50;99.90
19007;DHT22;9636;47.382;8.480;2022-09-30T10:36:07;12.50;99.90
19007;DHT22;9636;47.382;8.480;2022-09-30T10:38:36;12.60;99.90
19007;DHT22;9636;47.382;8.480;2022-09-30T10:41:10;12.70;99.90
19007;DHT22;9636;47.382;8.480;2022-09-30T10:43:46;12.80;99.90
19007;DHT22;9636;47.382;8.480;2022-09-30T10:46:22;12.80;99.90
19007;DHT22;9636;47.382;8.480;2022-09-30T10:48:51;12.90;99.90
19007;DHT22;9636;47.382;8.480;2022-09-30T10:51:25;12.90;99.90
19007;DHT22;9636;47.382;8.480;2022-09-30T10:53:52;13.00;99.90
19007;DHT22;9636;47.382;8.480;2022-09-30T10:56:47;13.00;99.90
19007;DHT22;9636;47.382;8.480;2022-09-30T10:59:29;13.00;99.90
19007;DHT22;9636;47.382;8.480;2022-09-30T11:02:04;13.10;99.90
19007;DHT22;9636;47.382;8.480;2022-09-30T11:04:45;13.20;99.90
19007;DHT22;9636;47.382;8.480;2022-09-30T11:07:21;13.20;99.90
19007;DHT22;9636;47.382;8.480;2022-09-30T11:09:52;13.30;99.90
19007;DHT22;9636;47.382;8.480;2022-09-30T11:12:25;13.30;99.90
19007;DHT22;9636;47.382;8.480;2022-09-30T11:14:59;13.30;99.90
19007;DHT22;9636;47.382;8.480;2022-09-30T11:17:32;13.40;99.90
19007;DHT22;9636;47.382;8.480;2022-09-30T11:20:13;13.30;99.90
19007;DHT22;9636;47.382;8.480;2022-09-30T11:22:45;13.40;99.90
19007;DHT22;9636;47.382;8.480;2022-09-30T11:25:18;13.50;99.90
19007;DHT22;9636;47.382;8.480;2022-09-30T11:28:01;13.60;99.90
19007;DHT22;9636;47.382;8.480;2022-09-30T11:30:34;13.60;99.90
19007;DHT22;9636;47.382;8.480;2022-09-30T11:33:17;13.60;99.90
19007;DHT22;9636;47.382;8.480;2022-09-30T11:35:54;13.60;99.90
19007;DHT22;9636;47.382;8.480;2022-09-30T11:38:51;13.50;99.90
19007;DHT22;9636;47.382;8.480;2022-09-30T11:41:24;13.40;99.90
19007;DHT22;9636;47.382;8.480;2022-09-30T11:43:59;13.40;99.90
19007;DHT22;9636;47.382;8.480;2022-09-30T11:46:45;13.40;99.90
19007;DHT22;9636;47.382;8.480;2022-09-30T11:49:30;13.40;99.90
19007;DHT22;9636;47.382;8.480;2022-09-30T11:52:08;13.40;99.90
19007;DHT22;9636;47.382;8.480;2022-09-30T11:54:48;13.40;99.90
19007;DHT22;9636;47.382;8.480;2022-09-30T11:57:23;13.40;99.90
19007;DHT22;9636;47.382;8.480;2022-09-30T11:59:57;13.40;99.90
19007;DHT22;9636;47.382;8.480;2022-09-30T12:02:30;13.50;99.90
19007;DHT22;9636;47.382;8.480;2022-09-30T12:05:05;13.40;99.90
19007;DHT22;9636;47.382;8.480;2022-09-30T12:07:40;13.50;99.90
19007;DHT22;9636;47.382;8.480;2022-09-30T12:10:17;13.50;99.90
19007;DHT22;9636;47.382;8.480;2022-09-30T12:12:48;13.50;99.90
19007;DHT22;9636;47.382;8.480;2022-09-30T12:15:17;13.60;99.90
19007;DHT22;9636;47.382;8.480;2022-09-30T12:17:48;13.60;99.90
19007;DHT22;9636;47.382;8.480;2022-09-30T12:20:22;13.50;99.90
19007;DHT22;9636;47.382;8.480;2022-09-30T12:22:52;13.60;99.90
19007;DHT22;9636;47.382;8.480;2022-09-30T12:25:27;13.70;99.90
19007;DHT22;9636;47.382;8.480;2022-09-30T12:28:01;13.70;99.90
19007;DHT22;9636;47.382;8.480;2022-09-30T12:30:55;13.70;99.90
19007;DHT22;9636;47.382;8.480;2022-09-30T12:36:30;13.80;99.90
19007;DHT22;9636;47.382;8.480;2022-09-30T12:42:31;13.70;99.90
19007;DHT22;9636;47.382;8.480;2022-09-30T12:45:16;13.80;99.90
19007;DHT22;9636;47.382;8.480;2022-09-30T12:47:47;13.80;99.90
19007;DHT22;9636;47.382;8.480;2022-09-30T12:50:17;13.80;99.90
19007;DHT22;9636;47.382;8.480;2022-09-30T12:52:47;13.80;99.90
19007;DHT22;9636;47.382;8.480;2022-09-30T12:55:21;13.80;99.90
19007;DHT22;9636;47.382;8.480;2022-09-30T12:57:51;13.80;99.90
19007;DHT22;9636;47.382;8.480;2022-09-30T13:00:20;13.80;99.90
19007;DHT22;9636;47.382;8.480;2022-09-30T13:02:52;13.80;99.90
19007;DHT22;9636;47.382;8.480;2022-09-30T13:05:45;13.80;99.90
19007;DHT22;9636;47.382;8.480;2022-09-30T13:08:31;14.00;99.90
19007;DHT22;9636;47.382;8.480;2022-09-30T13:11:05;14.00;99.90
19007;DHT22;9636;47.382;8.480;2022-09-30T13:13:32;13.90;99.90
19007;DHT22;9636;47.382;8.480;2022-09-30T13:16:02;13.90;99.90
19007;DHT22;9636;47.382;8.480;2022-09-30T13:18:59;13.90;99.90
19007;DHT22;9636;47.382;8.480;2022-09-30T13:21:26;13.90;99.90
19007;DHT22;9636;47.382;8.480;2022-09-30T13:23:55;13.90;99.90
19007;DHT22;9636;47.382;8.480;2022-09-30T13:26:44;13.90;99.90
19007;DHT22;9636;47.382;8.480;2022-09-30T13:29:35;13.90;99.90
19007;DHT22;9636;47.382;8.480;2022-09-30T13:32:10;13.90;99.90
19007;DHT22;9636;47.382;8.480;2022-09-30T13:34:56;13.90;99.90
19007;DHT22;9636;47.382;8.480;2022-09-30T13:37:37;13.90;99.90
19007;DHT22;9636;47.382;8.480;2022-09-30T13:40:17;13.90;99.90
19007;DHT22;9636;47.382;8.480;2022-09-30T13:42:56;14.00;99.90
19007;DHT22;9636;47.382;8.480;2022-09-30T13:45:30;14.00;99.90
19007;DHT22;9636;47.382;8.480;2022-09-30T13:48:06;14.00;99.90
19007;DHT22;9636;47.382;8.480;2022-09-30T13:50:44;14.00;99.90
19007;DHT22;9636;47.382;8.480;2022-09-30T13:53:18;14.10;99.90
19007;DHT22;9636;47.382;8.480;2022-09-30T13:55:50;14.10;99.90
19007;DHT22;9636;47.382;8.480;2022-09-30T13:58:52;14.10;99.90
19007;DHT22;9636;47.382;8.480;2022-09-30T14:01:34;14.20;99.90
19007;DHT22;9636;47.382;8.480;2022-09-30T14:04:36;14.20;99.90
19007;DHT22;9636;47.382;8.480;2022-09-30T14:07:12;14.20;99.90
19007;DHT22;9636;47.382;8.480;2022-09-30T14:09:52;14.10;99.90
19007;DHT22;9636;47.382;8.480;2022-09-30T14:12:43;14.10;99.90
19007;DHT22;9636;47.382;8.480;2022-09-30T14:15:25;14.00;99.90
19007;DHT22;9636;47.382;8.480;2022-09-30T14:18:07;14.00;99.90
19007;DHT22;9636;47.382;8.480;2022-09-30T14:20:50;14.00;99.90
19007;DHT22;9636;47.382;8.480;2022-09-30T14:23:23;14.00;99.90
19007;DHT22;9636;47.382;8.480;2022-09-30T14:25:57;14.10;99.90
19007;DHT22;9636;47.382;8.480;2022-09-30T14:28:31;14.10;99.90
19007;DHT22;9636;47.382;8.480;2022-09-30T14:31:01;14.10;99.90
19007;DHT22;9636;47.382;8.480;2022-09-30T14:33:35;14.10;99.90
19007;DHT22;9636;47.382;8.480;2022-09-30T14:36:10;14.10;99.90
19007;DHT22;9636;47.382;8.480;2022-09-30T14:38:38;14.10;99.90
19007;DHT22;9636;47.382;8.480;2022-09-30T14:41:15;14.10;99.90
19007;DHT22;9636;47.382;8.480;2022-09-30T14:43:45;14.10;99.90
19007;DHT22;9636;47.382;8.480;2022-09-30T14:46:24;14.10;99.90
19007;DHT22;9636;47.382;8.480;2022-09-30T14:48:53;14.10;99.90
19007;DHT22;9636;47.382;8.480;2022-09-30T14:51:24;14.10;99.90
19007;DHT22;9636;47.382;8.480;2022-09-30T14:53:57;14.10;99.90
19007;DHT22;9636;47.382;8.480;2022-09-30T14:56:26;14.20;99.90
19007;DHT22;9636;47.382;8.480;2022-09-30T14:58:56;14.20;99.90
19007;DHT22;9636;47.382;8.480;2022-09-30T15:01:24;14.20;99.90
19007;DHT22;9636;47.382;8.480;2022-09-30T15:03:56;14.10;99.90
19007;DHT22;9636;47.382;8.480;2022-09-30T15:06:26;14.10;99.90
19007;DHT22;9636;47.382;8.480;2022-09-30T15:09:00;14.00;99.90
19007;DHT22;9636;47.382;8.480;2022-09-30T15:11:28;14.00;99.90
19007;DHT22;9636;47.382;8.480;2022-09-30T15:13:59;14.00;99.90
19007;DHT22;9636;47.382;8.480;2022-09-30T15:16:28;13.90;99.90
19007;DHT22;9636;47.382;8.480;2022-09-30T15:18:56;13.80;99.90
19007;DHT22;9636;47.382;8.480;2022-09-30T15:21:25;13.80;99.90
19007;DHT22;9636;47.382;8.480;2022-09-30T15:23:55;13.80;99.90
19007;DHT22;9636;47.382;8.480;2022-09-30T15:26:24;13.80;99.90
19007;DHT22;9636;47.382;8.480;2022-09-30T15:28:51;13.80;99.90
19007;DHT22;9636;47.382;8.480;2022-09-30T15:31:25;13.90;99.90
19007;DHT22;9636;47.382;8.480;2022-09-30T15:34:04;13.80;99.90
19007;DHT22;9636;47.382;8.480;2022-09-30T15:36:33;13.80;99.90
19007;DHT22;9636;47.382;8.480;2022-09-30T15:39:02;13.80;99.90
19007;DHT22;9636;47.382;8.480;2022-09-30T15:41:37;13.80;99.90
19007;DHT22;9636;47.382;8.480;2022-09-30T15:44:15;13.90;99.90
19007;DHT22;9636;47.382;8.480;2022-09-30T15:46:59;13.90;99.90
19007;DHT22;9636;47.382;8.480;2022-09-30T15:49:32;13.90;99.90
19007;DHT22;9636;47.382;8.480;2022-09-30T15:52:25;13.90;99.90
19007;DHT22;9636;47.382;8.480;2022-09-30T15:54:54;13.80;99.90
19007;DHT22;9636;47.382;8.480;2022-09-30T15:57:42;13.80;99.90
19007;DHT22;9636;47.382;8.480;2022-09-30T16:00:35;13.80;99.90
19007;DHT22;9636;47.382;8.480;2022-09-30T16:03:25;13.70;99.90
19007;DHT22;9636;47.382;8.480;2022-09-30T16:05:53;13.80;99.90
19007;DHT22;9636;47.382;8.480;2022-09-30T16:08:30;13.70;99.90
19007;DHT22;9636;47.382;8.480;2022-09-30T16:10:58;13.70;99.90
19007;DHT22;9636;47.382;8.480;2022-09-30T16:13:27;13.80;99.90
19007;DHT22;9636;47.382;8.480;2022-09-30T16:15:56;13.80;99.90
19007;DHT22;9636;47.382;8.480;2022-09-30T16:18:26;13.60;99.90
19007;DHT22;9636;47.382;8.480;2022-09-30T16:20:58;13.60;99.90
19007;DHT22;9636;47.382;8.480;2022-09-30T16:23:30;13.60;99.90
19007;DHT22;9636;47.382;8.480;2022-09-30T16:26:18;13.60;99.90